Happy Valley, Tennessee
Current Conditions -  °F | °C
As of 1:53 AM on Wednesday 26 Nov 2014 (Local Time) from KTYS Reporting Station
Few Clouds Few Clouds  
Wind Chill: 42°   Ceiling: Unl
Heat Index: 45°   Visibility: 10mi
Dew Point: 29°   Wind: 6mph
Humidity: 53%   Direction: 340°NNW
Pressure: 30.02"   Gusts: NA
Location:  35.5537°N, 83.9603°W
Report Text: KTYS 260653Z 34005KT 10SM FEW060 FEW120 07/M02 A3002 RMK AO2 SLP164 T00721017
Loading
Personal Weather Stations






























Interactive Weather Map New forecast layout! Learn more

10-Day Weather Forecast

Advertisements
Track Severe Weather on mobile